createdAt,value
2018-06-28T00:00:11.750Z,100333.00
2018-06-28T00:02:41.166Z,100325.00
2018-06-28T00:05:10.735Z,100324.00
2018-06-28T00:07:40.166Z,100324.00
2018-06-28T00:10:09.642Z,100331.00
2018-06-28T00:12:39.110Z,100319.00
2018-06-28T00:15:08.573Z,100324.00
2018-06-28T00:17:37.981Z,100330.00
2018-06-28T00:20:07.449Z,100325.00
2018-06-28T00:22:36.828Z,100316.00
2018-06-28T00:25:06.276Z,100311.00
2018-06-28T00:27:35.744Z,100315.00
2018-06-28T00:30:05.715Z,100312.00
2018-06-28T00:32:35.154Z,100315.00
2018-06-28T00:35:04.741Z,100313.00
2018-06-28T00:37:34.102Z,100310.00
2018-06-28T00:40:03.598Z,100309.00
2018-06-28T00:42:32.993Z,100301.00
2018-06-28T00:45:02.431Z,100299.00
2018-06-28T00:47:31.845Z,100306.00
2018-06-28T00:50:01.243Z,100310.00
2018-06-28T00:52:30.682Z,100309.00
2018-06-28T00:55:00.067Z,100304.00
2018-06-28T00:57:29.976Z,100303.00
2018-06-28T00:59:59.383Z,100295.00
2018-06-28T01:02:28.817Z,100294.00
2018-06-28T01:04:58.208Z,100288.00
2018-06-28T01:07:27.589Z,100288.00
2018-06-28T01:09:57.054Z,100293.00
2018-06-28T01:12:26.553Z,100281.00
2018-06-28T01:14:55.966Z,100279.00
2018-06-28T01:17:25.460Z,100285.00
2018-06-28T01:19:54.864Z,100282.00
2018-06-28T01:22:24.284Z,100290.00
2018-06-28T01:24:53.711Z,100288.00
2018-06-28T01:27:23.160Z,100283.00
2018-06-28T01:29:52.579Z,100283.00
2018-06-28T01:32:22.061Z,100295.00
2018-06-28T01:34:51.429Z,100289.00
2018-06-28T01:37:20.880Z,100292.00
2018-06-28T01:39:50.430Z,100284.00
2018-06-28T01:42:49.561Z,100289.00
2018-06-28T01:45:19.032Z,100288.00
2018-06-28T01:47:48.399Z,100290.00
2018-06-28T01:50:17.866Z,100294.00
2018-06-28T01:52:47.291Z,100278.00
2018-06-28T01:55:16.678Z,100276.00
2018-06-28T01:57:46.146Z,100270.00
2018-06-28T02:00:15.521Z,100271.00
2018-06-28T02:02:44.932Z,100268.00
2018-06-28T02:05:14.610Z,100272.00
2018-06-28T02:07:44.007Z,100269.00
2018-06-28T02:10:13.481Z,100269.00
2018-06-28T02:12:42.870Z,100268.00
2018-06-28T02:15:12.338Z,100273.00
2018-06-28T02:17:41.726Z,100275.00
2018-06-28T02:20:11.132Z,100264.00
2018-06-28T02:22:40.506Z,100267.00
2018-06-28T02:25:09.877Z,100254.00
2018-06-28T02:27:39.368Z,100252.00
2018-06-28T02:30:08.791Z,100252.00
2018-06-28T02:32:38.351Z,100254.00
2018-06-28T02:35:07.773Z,100242.00
2018-06-28T02:37:37.232Z,100246.00
2018-06-28T02:40:07.188Z,100252.00
2018-06-28T02:42:36.585Z,100254.00
2018-06-28T02:45:06.460Z,100254.00
2018-06-28T02:47:35.939Z,100253.00
2018-06-28T02:50:05.612Z,100253.00
2018-06-28T02:52:35.048Z,100253.00
2018-06-28T02:55:04.550Z,100244.00
2018-06-28T02:57:34.022Z,100250.00
2018-06-28T03:00:03.511Z,100259.00
2018-06-28T03:02:32.933Z,100247.00
2018-06-28T03:05:02.313Z,100249.00
2018-06-28T03:07:31.733Z,100248.00
2018-06-28T03:10:01.146Z,100242.00
2018-06-28T03:12:30.547Z,100242.00
2018-06-28T03:14:59.945Z,100245.00
2018-06-28T03:17:29.290Z,100254.00
2018-06-28T03:19:58.703Z,100261.00
2018-06-28T03:22:28.157Z,100255.00
2018-06-28T03:24:57.544Z,100251.00
2018-06-28T03:27:26.901Z,100255.00
2018-06-28T03:29:56.313Z,100253.00
2018-06-28T03:32:25.724Z,100264.00
2018-06-28T03:34:55.123Z,100257.00
2018-06-28T03:37:24.600Z,100254.00
2018-06-28T03:39:53.995Z,100248.00
2018-06-28T03:42:23.359Z,100250.00
2018-06-28T03:44:52.684Z,100240.00
2018-06-28T03:47:22.067Z,100245.00
2018-06-28T03:49:51.405Z,100246.00
2018-06-28T03:52:20.878Z,100242.00
2018-06-28T03:54:50.238Z,100254.00
2018-06-28T03:57:19.658Z,100244.00
2018-06-28T03:59:49.034Z,100243.00
2018-06-28T04:02:18.438Z,100240.00
2018-06-28T04:04:47.813Z,100236.00
2018-06-28T04:07:17.242Z,100234.00
2018-06-28T04:09:46.920Z,100235.00
2018-06-28T04:12:16.314Z,100237.00
2018-06-28T04:14:45.647Z,100240.00
2018-06-28T04:17:15.073Z,100240.00
2018-06-28T04:19:44.426Z,100237.00
2018-06-28T04:22:18.157Z,100237.00
2018-06-28T04:24:47.508Z,100238.00
2018-06-28T04:27:16.949Z,100242.00
2018-06-28T04:29:46.481Z,100236.00
2018-06-28T04:32:16.106Z,100245.00
2018-06-28T04:34:45.463Z,100228.00
2018-06-28T04:37:15.195Z,100232.00
2018-06-28T04:39:44.684Z,100231.00
2018-06-28T04:42:14.206Z,100224.00
2018-06-28T04:44:43.728Z,100226.00
2018-06-28T04:47:13.125Z,100212.00
2018-06-28T04:49:42.937Z,100211.00
2018-06-28T04:52:13.006Z,100215.00
2018-06-28T04:54:42.462Z,100215.00
2018-06-28T04:57:11.846Z,100212.00
2018-06-28T04:59:41.239Z,100211.00
2018-06-28T05:02:10.743Z,100215.00
2018-06-28T05:04:40.194Z,100204.00
2018-06-28T05:07:09.713Z,100209.00
2018-06-28T05:09:39.168Z,100211.00
2018-06-28T05:12:08.571Z,100208.00
2018-06-28T05:14:37.954Z,100208.00
2018-06-28T05:17:07.364Z,100206.00
2018-06-28T05:19:36.777Z,100199.00
2018-06-28T05:22:06.185Z,100217.00
2018-06-28T05:24:35.600Z,100205.00
2018-06-28T05:27:05.121Z,100208.00
2018-06-28T05:29:34.500Z,100201.00
2018-06-28T05:32:03.937Z,100201.00
2018-06-28T05:34:33.354Z,100192.00
2018-06-28T05:37:02.719Z,100196.00
2018-06-28T05:39:32.156Z,100188.00
2018-06-28T05:42:01.497Z,100174.00
2018-06-28T05:44:30.887Z,100190.00
2018-06-28T05:47:00.239Z,100170.00
2018-06-28T05:49:29.786Z,100177.00
2018-06-28T05:51:59.158Z,100173.00
2018-06-28T05:54:28.480Z,100168.00
2018-06-28T05:56:57.894Z,100173.00
2018-06-28T05:59:27.278Z,100172.00
2018-06-28T06:01:56.686Z,100169.00
2018-06-28T06:04:26.074Z,100169.00
2018-06-28T06:06:55.546Z,100159.00
2018-06-28T06:09:24.892Z,100161.00
2018-06-28T06:11:54.268Z,100159.00
2018-06-28T06:14:23.607Z,100175.00
2018-06-28T06:16:53.009Z,100175.00
2018-06-28T06:19:22.385Z,100166.00
2018-06-28T06:21:51.747Z,100167.00
2018-06-28T06:24:21.166Z,100159.00
2018-06-28T06:26:50.608Z,100159.00
2018-06-28T06:29:20.117Z,100160.00
2018-06-28T06:31:49.522Z,100155.00
2018-06-28T06:34:18.941Z,100158.00
2018-06-28T06:36:48.386Z,100152.00
2018-06-28T06:39:17.821Z,100142.00
2018-06-28T06:41:47.201Z,100150.00
2018-06-28T06:44:16.552Z,100149.00
2018-06-28T06:46:45.973Z,100139.00
2018-06-28T06:49:15.332Z,100145.00
2018-06-28T06:51:44.841Z,100141.00
2018-06-28T06:54:14.200Z,100144.00
2018-06-28T06:56:43.598Z,100137.00
2018-06-28T06:59:12.996Z,100139.00
2018-06-28T07:01:42.351Z,100143.00
2018-06-28T07:04:11.785Z,100142.00
2018-06-28T07:06:41.183Z,100135.00
2018-06-28T07:09:12.483Z,100133.00
2018-06-28T07:11:42.202Z,100139.00
2018-06-28T07:14:12.163Z,100137.00
2018-06-28T07:16:41.525Z,100141.00
2018-06-28T07:19:10.888Z,100137.00
2018-06-28T07:21:40.277Z,100136.00
2018-06-28T07:24:09.693Z,100128.00
2018-06-28T07:26:39.106Z,100124.00
2018-06-28T07:29:08.629Z,100114.00
2018-06-28T07:31:37.926Z,100119.00
2018-06-28T07:34:07.547Z,100109.00
2018-06-28T07:36:36.893Z,100115.00
2018-06-28T07:39:10.679Z,100116.00
2018-06-28T07:41:40.425Z,100110.00
2018-06-28T07:44:10.420Z,100100.00
2018-06-28T07:46:39.762Z,100092.00
2018-06-28T07:49:09.187Z,100091.00
2018-06-28T07:51:38.513Z,100086.00
2018-06-28T07:54:07.932Z,100086.00
2018-06-28T07:56:37.285Z,100089.00
2018-06-28T07:59:06.708Z,100087.00
2018-06-28T08:01:36.083Z,100084.00
2018-06-28T08:04:05.551Z,100078.00
2018-06-28T08:06:34.937Z,100062.00
2018-06-28T08:09:05.903Z,100064.00
2018-06-28T08:11:35.329Z,100052.00
2018-06-28T08:14:04.801Z,100062.00
2018-06-28T08:16:34.204Z,100057.00
2018-06-28T08:19:03.766Z,100056.00
2018-06-28T08:21:33.231Z,100062.00
2018-06-28T08:24:02.660Z,100059.00
2018-06-28T08:26:32.103Z,100041.00
2018-06-28T08:29:01.471Z,100053.00
2018-06-28T08:31:30.936Z,100046.00
2018-06-28T08:34:00.339Z,100038.00
2018-06-28T08:36:29.730Z,100050.00
2018-06-28T08:38:59.112Z,100045.00
2018-06-28T08:41:28.158Z,100037.00
2018-06-28T08:43:57.546Z,100026.00
2018-06-28T08:46:26.891Z,100039.00
2018-06-28T08:48:56.444Z,100037.00
2018-06-28T08:51:25.799Z,100045.00
2018-06-28T08:53:55.154Z,100030.00
2018-06-28T08:56:24.538Z,100028.00
2018-06-28T08:58:53.895Z,100021.00
2018-06-28T09:01:24.205Z,100024.00
2018-06-28T09:03:53.663Z,100014.00
2018-06-28T09:06:23.068Z,100024.00
2018-06-28T09:08:52.435Z,100025.00
2018-06-28T09:11:21.824Z,100022.00
2018-06-28T09:13:51.204Z,100039.00
2018-06-28T09:16:20.629Z,100010.00
2018-06-28T09:18:50.049Z,100011.00
2018-06-28T09:21:19.457Z,100015.00
2018-06-28T09:23:48.823Z,100010.00
2018-06-28T09:26:18.249Z,100019.00
2018-06-28T09:28:47.596Z,100017.00
2018-06-28T09:31:16.965Z,100001.00
2018-06-28T09:33:46.316Z,99993.00
2018-06-28T09:36:15.745Z,99998.00
2018-06-28T09:38:45.113Z,100016.00
2018-06-28T09:41:14.612Z,99998.00
2018-06-28T09:43:43.957Z,100012.00
2018-06-28T09:46:13.518Z,99992.00
2018-06-28T09:48:42.937Z,99983.00
2018-06-28T09:51:12.218Z,99985.00
2018-06-28T09:53:41.331Z,99992.00
2018-06-28T09:56:10.721Z,99998.00
2018-06-28T09:58:40.174Z,99999.00
2018-06-28T10:01:09.541Z,99999.00
2018-06-28T10:03:38.910Z,99993.00
2018-06-28T10:06:08.366Z,99994.00
2018-06-28T10:08:37.762Z,99995.00
2018-06-28T10:11:07.264Z,100001.00
2018-06-28T10:13:36.340Z,99990.00
2018-06-28T10:16:06.198Z,99987.00
2018-06-28T10:18:35.667Z,99984.00
2018-06-28T10:21:05.081Z,99990.00
2018-06-28T10:23:34.485Z,99980.00
2018-06-28T10:26:03.899Z,99982.00
2018-06-28T10:28:33.308Z,99979.00
2018-06-28T10:31:02.716Z,99978.00
2018-06-28T10:33:32.127Z,100006.00
2018-06-28T10:36:01.500Z,99977.00
2018-06-28T10:38:30.939Z,99977.00
2018-06-28T10:41:00.328Z,99982.00
2018-06-28T10:43:29.705Z,100001.00
2018-06-28T10:45:59.110Z,99977.00
2018-06-28T10:48:28.492Z,99977.00
2018-06-28T10:50:57.877Z,99973.00
2018-06-28T10:53:27.468Z,99972.00
2018-06-28T10:55:56.881Z,99971.00
2018-06-28T10:58:26.231Z,99973.00
2018-06-28T11:00:55.558Z,99969.00
2018-06-28T11:03:25.008Z,99975.00
2018-06-28T11:05:54.398Z,99969.00
2018-06-28T11:08:23.852Z,99966.00
2018-06-28T11:10:53.226Z,99962.00
2018-06-28T11:13:22.613Z,99972.00
2018-06-28T11:15:52.013Z,99966.00
2018-06-28T11:18:21.463Z,99968.00
2018-06-28T11:20:50.825Z,99961.00
2018-06-28T11:23:20.221Z,99981.00
2018-06-28T11:25:49.592Z,99984.00
2018-06-28T11:28:18.982Z,99965.00
2018-06-28T11:30:48.459Z,99974.00
2018-06-28T11:33:17.909Z,99950.00
2018-06-28T11:35:47.255Z,99949.00
2018-06-28T11:38:16.628Z,99968.00
2018-06-28T11:40:45.974Z,99964.00
2018-06-28T11:43:15.394Z,99947.00
2018-06-28T11:45:44.844Z,99957.00
2018-06-28T11:48:14.265Z,99939.00
2018-06-28T11:50:43.722Z,99940.00
2018-06-28T11:53:13.139Z,99942.00
2018-06-28T11:55:42.355Z,99950.00
2018-06-28T11:58:11.726Z,99933.00
2018-06-28T12:00:41.264Z,99931.00
2018-06-28T12:03:10.735Z,99927.00
2018-06-28T12:05:40.228Z,99930.00
2018-06-28T12:08:09.776Z,99934.00
2018-06-28T12:10:39.074Z,99930.00
2018-06-28T12:13:08.549Z,99932.00
2018-06-28T12:15:37.908Z,99940.00
2018-06-28T12:18:07.334Z,99941.00
2018-06-28T12:20:36.701Z,99924.00
2018-06-28T12:23:07.093Z,99936.00
2018-06-28T12:25:36.513Z,99931.00
2018-06-28T12:28:06.275Z,99929.00
2018-06-28T12:30:35.704Z,99917.00
2018-06-28T12:33:05.383Z,99922.00
2018-06-28T12:35:34.737Z,99915.00
2018-06-28T12:38:04.106Z,99919.00
2018-06-28T12:40:33.492Z,99923.00
2018-06-28T12:43:03.043Z,99925.00
2018-06-28T12:45:32.896Z,99930.00
2018-06-28T12:48:08.546Z,99927.00
2018-06-28T12:50:38.083Z,99931.00
2018-06-28T12:53:08.691Z,99931.00
2018-06-28T12:56:50.382Z,99929.00
2018-06-28T12:59:22.721Z,99926.00
2018-06-28T13:01:52.134Z,99923.00
2018-06-28T13:04:21.663Z,99923.00
2018-06-28T13:06:51.256Z,99922.00
2018-06-28T13:09:20.800Z,99918.00
2018-06-28T13:11:50.213Z,99919.00
2018-06-28T13:14:19.772Z,99922.00
2018-06-28T13:16:49.223Z,99919.00
2018-06-28T13:19:18.603Z,99917.00
2018-06-28T13:21:48.011Z,99923.00
2018-06-28T13:24:17.474Z,99913.00
2018-06-28T13:26:46.891Z,99905.00
2018-06-28T13:29:16.321Z,99905.00
2018-06-28T13:31:45.746Z,99911.00
2018-06-28T13:34:15.141Z,99908.00
2018-06-28T13:36:44.637Z,99919.00
2018-06-28T13:39:14.046Z,99918.00
2018-06-28T13:41:43.898Z,99925.00
2018-06-28T13:44:12.940Z,99928.00
2018-06-28T13:46:42.326Z,99930.00
2018-06-28T13:49:11.770Z,99916.00
2018-06-28T13:51:41.076Z,99921.00
2018-06-28T13:54:10.408Z,99917.00
2018-06-28T13:56:39.777Z,99909.00
2018-06-28T13:59:09.151Z,99905.00
2018-06-28T14:01:38.850Z,99912.00
2018-06-28T14:04:08.364Z,99909.00
2018-06-28T14:06:37.787Z,99913.00
2018-06-28T14:09:11.403Z,99905.00
2018-06-28T14:11:40.867Z,99905.00
2018-06-28T14:14:10.251Z,99918.00
2018-06-28T14:16:39.676Z,99909.00
2018-06-28T14:19:09.284Z,99914.00
2018-06-28T14:21:38.788Z,99909.00
2018-06-28T14:24:08.355Z,99911.00
2018-06-28T14:26:37.881Z,99941.00
2018-06-28T14:29:07.319Z,99929.00
2018-06-28T14:31:36.689Z,99914.00
2018-06-28T14:34:06.122Z,99920.00
2018-06-28T14:36:35.473Z,99923.00
2018-06-28T14:39:07.498Z,99917.00
2018-06-28T14:41:36.886Z,99893.00
2018-06-28T14:44:06.293Z,99896.00
2018-06-28T14:46:35.701Z,99894.00
2018-06-28T14:49:05.117Z,99897.00
2018-06-28T14:51:34.508Z,99889.00
2018-06-28T14:54:03.877Z,99896.00
2018-06-28T14:56:33.294Z,99900.00
2018-06-28T14:59:02.666Z,99901.00
2018-06-28T15:01:32.080Z,99893.00
2018-06-28T15:04:01.449Z,99883.00
2018-06-28T15:06:30.760Z,99883.00
2018-06-28T15:09:00.203Z,99867.00
2018-06-28T15:11:29.582Z,99859.00
2018-06-28T15:13:58.990Z,99860.00
2018-06-28T15:16:28.399Z,99870.00
2018-06-28T15:18:57.780Z,99882.00
2018-06-28T15:21:27.162Z,99884.00
2018-06-28T15:23:56.540Z,99880.00
2018-06-28T15:26:25.906Z,99886.00
2018-06-28T15:28:55.238Z,99899.00
2018-06-28T15:31:24.646Z,99885.00
2018-06-28T15:33:54.052Z,99875.00
2018-06-28T15:36:23.737Z,99880.00
2018-06-28T15:38:53.245Z,99862.00
2018-06-28T15:41:22.652Z,99866.00
2018-06-28T15:43:52.017Z,99859.00
2018-06-28T15:46:21.575Z,99856.00
2018-06-28T15:48:50.934Z,99863.00
2018-06-28T15:51:20.294Z,99866.00
2018-06-28T15:53:49.777Z,99858.00
2018-06-28T15:56:19.144Z,99855.00
2018-06-28T15:58:48.560Z,99842.00
2018-06-28T16:01:18.023Z,99831.00
2018-06-28T16:03:47.470Z,99828.00
2018-06-28T16:06:17.026Z,99821.00
2018-06-28T16:08:46.540Z,99807.00
2018-06-28T16:11:15.965Z,99808.00
2018-06-28T16:13:45.436Z,99800.00
2018-06-28T16:16:14.815Z,99802.00
2018-06-28T16:18:44.169Z,99797.00
2018-06-28T16:21:13.289Z,99799.00
2018-06-28T16:23:42.659Z,99799.00
2018-06-28T16:26:12.057Z,99793.00
2018-06-28T16:28:41.462Z,99786.00
2018-06-28T16:31:10.904Z,99789.00
2018-06-28T16:33:40.298Z,99788.00
2018-06-28T16:36:09.690Z,99792.00
2018-06-28T16:38:39.160Z,99791.00
2018-06-28T16:41:08.553Z,99785.00
2018-06-28T16:43:37.924Z,99779.00
2018-06-28T16:46:07.366Z,99774.00
2018-06-28T16:48:36.727Z,99786.00
2018-06-28T16:51:06.267Z,99780.00
2018-06-28T16:53:35.604Z,99783.00
2018-06-28T16:56:05.053Z,99781.00
2018-06-28T16:58:34.654Z,99786.00
2018-06-28T17:01:04.125Z,99788.00
2018-06-28T17:03:33.530Z,99788.00
2018-06-28T17:06:02.914Z,99788.00
2018-06-28T17:08:32.314Z,99786.00
2018-06-28T17:11:01.686Z,99788.00
2018-06-28T17:13:31.265Z,99783.00
2018-06-28T17:16:00.683Z,99784.00
2018-06-28T17:18:30.086Z,99786.00
2018-06-28T17:20:59.559Z,99786.00
2018-06-28T17:23:29.009Z,99792.00
2018-06-28T17:25:58.428Z,99791.00
2018-06-28T17:28:27.799Z,99788.00
2018-06-28T17:30:57.213Z,99795.00
2018-06-28T17:33:26.606Z,99788.00
2018-06-28T17:35:55.926Z,99792.00
2018-06-28T17:38:25.372Z,99788.00
2018-06-28T17:40:54.770Z,99784.00
2018-06-28T17:43:24.129Z,99787.00
2018-06-28T17:45:53.478Z,99784.00
2018-06-28T17:48:22.941Z,99779.00
2018-06-28T17:50:52.409Z,99783.00
2018-06-28T17:53:21.794Z,99783.00
2018-06-28T17:55:52.138Z,99781.00
2018-06-28T17:58:21.569Z,99779.00
2018-06-28T18:00:50.953Z,99777.00
2018-06-28T18:03:20.422Z,99771.00
2018-06-28T18:05:49.783Z,99779.00
2018-06-28T18:08:19.249Z,99772.00
2018-06-28T18:10:49.094Z,99782.00
2018-06-28T18:13:18.456Z,99773.00
2018-06-28T18:15:47.859Z,99773.00
2018-06-28T18:18:17.264Z,99779.00
2018-06-28T18:20:46.729Z,99778.00
2018-06-28T18:23:16.119Z,99779.00
2018-06-28T18:25:45.496Z,99782.00
2018-06-28T18:28:14.857Z,99788.00
2018-06-28T18:30:44.375Z,99790.00
2018-06-28T18:33:13.812Z,99782.00
2018-06-28T18:35:43.161Z,99778.00
2018-06-28T18:38:12.618Z,99778.00
2018-06-28T18:40:41.984Z,99776.00
2018-06-28T18:43:11.345Z,99776.00
2018-06-28T18:45:40.750Z,99764.00
2018-06-28T18:48:10.144Z,99762.00
2018-06-28T18:50:39.604Z,99761.00
2018-06-28T18:53:08.957Z,99766.00
2018-06-28T18:55:38.463Z,99765.00
2018-06-28T18:58:07.907Z,99755.00
2018-06-28T19:00:37.445Z,99760.00
2018-06-28T19:03:06.896Z,99768.00
2018-06-28T19:05:36.277Z,99766.00
2018-06-28T19:08:05.802Z,99767.00
2018-06-28T19:10:40.616Z,99775.00
2018-06-28T19:13:10.028Z,99765.00
2018-06-28T19:15:44.597Z,99765.00
2018-06-28T19:18:14.002Z,99770.00
2018-06-28T19:20:47.549Z,99773.00
2018-06-28T19:23:22.336Z,99778.00
2018-06-28T19:25:51.741Z,99778.00
2018-06-28T19:28:21.153Z,99784.00
2018-06-28T19:30:55.830Z,99783.00
2018-06-28T19:33:25.300Z,99775.00
2018-06-28T19:35:54.776Z,99774.00
2018-06-28T19:38:24.125Z,99774.00
2018-06-28T19:40:58.754Z,99780.00
2018-06-28T19:43:28.249Z,99772.00
2018-06-28T19:45:57.630Z,99777.00
2018-06-28T19:48:27.041Z,99782.00
2018-06-28T19:51:01.612Z,99785.00
2018-06-28T19:53:30.950Z,99787.00
2018-06-28T19:56:00.360Z,99787.00
2018-06-28T19:58:29.726Z,99781.00
2018-06-28T20:01:04.228Z,99779.00
2018-06-28T20:03:38.897Z,99770.00
2018-06-28T20:06:08.340Z,99781.00
2018-06-28T20:08:37.706Z,99774.00
2018-06-28T20:11:07.173Z,99778.00
2018-06-28T20:13:41.862Z,99776.00
2018-06-28T20:16:16.160Z,99774.00
2018-06-28T20:18:50.679Z,99782.00
2018-06-28T20:21:20.111Z,99775.00
2018-06-28T20:23:49.504Z,99770.00
2018-06-28T20:26:24.216Z,99762.00
2018-06-28T20:28:58.774Z,99759.00
2018-06-28T20:31:33.395Z,99759.00
2018-06-28T20:34:07.167Z,99761.00
2018-06-28T20:36:36.688Z,99761.00
2018-06-28T20:39:09.098Z,99760.00
2018-06-28T20:41:38.916Z,99766.00
2018-06-28T20:44:08.621Z,99768.00
2018-06-28T20:46:38.293Z,99759.00
2018-06-28T20:49:11.309Z,99764.00
2018-06-28T20:51:40.694Z,99756.00
2018-06-28T20:54:10.122Z,99754.00
2018-06-28T20:56:39.516Z,99758.00
2018-06-28T20:59:08.993Z,99757.00
2018-06-28T21:01:38.552Z,99766.00
2018-06-28T21:04:07.999Z,99763.00
2018-06-28T21:06:37.429Z,99761.00
2018-06-28T21:09:08.517Z,99762.00
2018-06-28T21:11:37.923Z,99766.00
2018-06-28T21:14:07.451Z,99772.00
2018-06-28T21:16:36.831Z,99767.00
2018-06-28T21:19:06.277Z,99765.00
2018-06-28T21:21:35.689Z,99768.00
2018-06-28T21:24:05.133Z,99768.00
2018-06-28T21:26:34.559Z,99771.00
2018-06-28T21:29:03.954Z,99768.00
2018-06-28T21:31:33.382Z,99781.00
2018-06-28T21:34:02.761Z,99785.00
2018-06-28T21:36:32.211Z,99785.00
2018-06-28T21:39:01.673Z,99785.00
2018-06-28T21:41:31.104Z,99780.00
2018-06-28T21:44:00.531Z,99778.00
2018-06-28T21:46:30.399Z,99780.00
2018-06-28T21:48:59.807Z,99775.00
2018-06-28T21:51:29.263Z,99785.00
2018-06-28T21:53:58.704Z,99783.00
2018-06-28T21:56:28.133Z,99796.00
2018-06-28T21:58:57.613Z,99779.00
2018-06-28T22:01:26.993Z,99778.00
2018-06-28T22:03:56.405Z,99788.00
2018-06-28T22:06:25.793Z,99791.00
2018-06-28T22:08:55.150Z,99781.00
2018-06-28T22:11:24.520Z,99786.00
2018-06-28T22:13:54.104Z,99785.00
2018-06-28T22:16:23.497Z,99782.00
2018-06-28T22:18:52.906Z,99778.00
2018-06-28T22:21:22.389Z,99773.00
2018-06-28T22:23:51.769Z,99771.00
2018-06-28T22:26:21.245Z,99769.00
2018-06-28T22:28:50.743Z,99767.00
2018-06-28T22:31:20.197Z,99767.00
2018-06-28T22:33:49.656Z,99768.00
2018-06-28T22:36:19.050Z,99768.00
2018-06-28T22:38:48.428Z,99763.00
2018-06-28T22:41:17.937Z,99765.00
2018-06-28T22:43:47.372Z,99766.00
2018-06-28T22:46:16.709Z,99765.00
2018-06-28T22:48:46.176Z,99759.00
2018-06-28T22:51:15.643Z,99751.00
2018-06-28T22:53:45.027Z,99749.00
2018-06-28T22:56:14.415Z,99747.00
2018-06-28T22:58:43.836Z,99748.00
2018-06-28T23:01:13.239Z,99755.00
2018-06-28T23:03:42.573Z,99755.00
2018-06-28T23:06:12.078Z,99754.00
2018-06-28T23:08:41.464Z,99752.00
2018-06-28T23:11:11.051Z,99759.00
2018-06-28T23:13:40.210Z,99763.00
2018-06-28T23:16:09.641Z,99758.00
2018-06-28T23:18:39.086Z,99755.00
2018-06-28T23:21:08.490Z,99749.00
2018-06-28T23:23:37.916Z,99762.00
2018-06-28T23:26:07.314Z,99749.00
2018-06-28T23:28:36.733Z,99758.00
2018-06-28T23:31:06.187Z,99754.00
2018-06-28T23:33:35.581Z,99754.00
2018-06-28T23:36:05.236Z,99753.00
2018-06-28T23:38:34.788Z,99755.00
2018-06-28T23:41:04.866Z,99760.00
2018-06-28T23:43:34.286Z,99763.00
2018-06-28T23:46:03.956Z,99756.00
2018-06-28T23:48:33.393Z,99762.00
2018-06-28T23:51:02.844Z,99758.00
2018-06-28T23:53:32.235Z,99758.00
2018-06-28T23:56:01.700Z,99756.00
2018-06-28T23:58:31.191Z,99753.00
